Time,TemperatureF,DewpointF,PressureIn,WindDirection,WindDirectionDegrees,WindSpeedMPH,WindSpeedGustMPH,Humidity,HourlyPrecipIn,Conditions,Clouds,dailyrainin,SoftwareType,DateUTC
2013-02-04 00:01:00,13.5,7.9,29.99,North,0,0.0,0.0,78,0.00,,,0.00,WUHU216HW,2013-02-04 06:01:00,
2013-02-04 00:12:00,13.5,8.2,29.98,North,0,0.0,0.0,79,0.00,,,0.00,WUHU216HW,2013-02-04 06:12:00,
2013-02-04 00:22:00,13.3,8.0,29.98,North,0,0.0,0.0,79,0.00,,,0.00,WUHU216HW,2013-02-04 06:22:00,
2013-02-04 00:32:00,13.3,8.0,29.98,North,0,0.0,0.0,79,0.00,,,0.00,WUHU216HW,2013-02-04 06:32:00,
2013-02-04 00:42:00,13.3,8.3,29.97,North,0,0.0,0.0,80,0.00,,,0.00,WUHU216HW,2013-02-04 06:42:00,
2013-02-04 00:52:00,13.0,8.5,29.97,North,0,0.0,0.0,82,0.00,,,0.00,WUHU216HW,2013-02-04 06:52:00,
2013-02-04 01:02:00,12.8,8.6,29.97,North,0,0.0,0.0,83,0.00,,,0.00,WUHU216HW,2013-02-04 07:02:00,
2013-02-04 01:12:00,12.8,8.6,29.96,North,0,0.0,0.0,83,0.00,,,0.00,WUHU216HW,2013-02-04 07:12:00,
2013-02-04 01:23:00,12.8,8.8,29.97,North,0,0.0,0.0,84,0.00,,,0.00,WUHU216HW,2013-02-04 07:23:00,
2013-02-04 01:33:00,12.8,8.8,29.96,North,0,0.0,0.0,84,0.00,,,0.00,WUHU216HW,2013-02-04 07:33:00,
2013-02-04 01:43:00,12.6,8.4,29.96,North,0,0.0,0.0,83,0.00,,,0.00,WUHU216HW,2013-02-04 07:43:00,
2013-02-04 01:53:00,12.6,8.4,29.96,North,0,0.0,0.0,83,0.00,,,0.00,WUHU216HW,2013-02-04 07:53:00,
2013-02-04 02:03:00,12.6,8.1,29.95,North,0,0.0,0.0,82,0.00,,,0.00,WUHU216HW,2013-02-04 08:03:00,
2013-02-04 02:13:00,12.8,8.3,29.95,North,0,0.0,0.0,82,0.00,,,0.00,WUHU216HW,2013-02-04 08:13:00,
2013-02-04 02:23:00,12.8,8.6,29.94,North,0,0.0,0.0,83,0.00,,,0.00,WUHU216HW,2013-02-04 08:23:00,
2013-02-04 02:33:00,12.8,8.3,29.94,North,0,0.0,0.0,82,0.00,,,0.00,WUHU216HW,2013-02-04 08:33:00,
2013-02-04 02:43:00,12.8,8.3,29.94,North,0,0.0,0.0,82,0.00,,,0.00,WUHU216HW,2013-02-04 08:43:00,
2013-02-04 02:53:00,12.8,8.6,29.94,North,0,0.0,0.0,83,0.00,,,0.00,WUHU216HW,2013-02-04 08:53:00,
2013-02-04 03:04:00,12.8,8.6,29.92,North,0,0.0,0.0,83,0.00,,,0.00,WUHU216HW,2013-02-04 09:04:00,
2013-02-04 03:14:00,12.6,8.4,29.92,North,0,0.0,0.0,83,0.00,,,0.00,WUHU216HW,2013-02-04 09:14:00,
2013-02-04 03:24:00,12.8,8.6,29.91,North,0,0.0,0.0,83,0.00,,,0.00,WUHU216HW,2013-02-04 09:24:00,
2013-02-04 03:34:00,12.8,8.6,29.92,North,0,0.0,0.0,83,0.00,,,0.00,WUHU216HW,2013-02-04 09:34:00,
2013-02-04 03:44:00,12.6,8.4,29.92,North,0,0.0,0.0,83,0.00,,,0.00,WUHU216HW,2013-02-04 09:44:00,
2013-02-04 03:54:00,12.2,8.0,29.92,North,0,0.0,0.0,83,0.00,,,0.00,WUHU216HW,2013-02-04 09:54:00,
2013-02-04 04:04:00,12.1,7.8,29.92,North,0,0.0,0.0,83,0.00,,,0.00,WUHU216HW,2013-02-04 10:04:00,
2013-02-04 04:14:00,11.9,7.7,29.93,North,0,0.0,0.0,83,0.00,,,0.00,WUHU216HW,2013-02-04 10:14:00,
2013-02-04 04:24:00,11.9,7.7,29.92,North,0,0.0,0.0,83,0.00,,,0.00,WUHU216HW,2013-02-04 10:24:00,
2013-02-04 04:34:00,11.7,7.5,29.92,North,0,0.0,0.0,83,0.00,,,0.00,WUHU216HW,2013-02-04 10:34:00,
2013-02-04 04:44:00,11.5,7.6,29.93,North,0,0.0,0.0,84,0.00,,,0.00,WUHU216HW,2013-02-04 10:44:00,
2013-02-04 04:54:00,11.3,7.4,29.93,North,0,0.0,0.0,84,0.00,,,0.00,WUHU216HW,2013-02-04 10:54:00,
2013-02-04 05:04:00,11.3,7.4,29.93,North,0,0.0,0.0,84,0.00,,,0.00,WUHU216HW,2013-02-04 11:04:00,
2013-02-04 05:14:00,11.2,7.2,29.93,North,0,0.0,0.0,84,0.00,,,0.00,WUHU216HW,2013-02-04 11:14:00,
2013-02-04 05:24:00,11.2,7.2,29.93,North,0,0.0,0.0,84,0.00,,,0.00,WUHU216HW,2013-02-04 11:24:00,
2013-02-04 05:35:00,11.2,7.2,29.93,North,0,0.0,0.0,84,0.00,,,0.00,WUHU216HW,2013-02-04 11:35:00,
2013-02-04 05:45:00,11.2,7.2,29.93,North,0,0.0,0.0,84,0.00,,,0.00,WUHU216HW,2013-02-04 11:45:00,
2013-02-04 05:55:00,11.2,7.2,29.93,North,0,0.0,0.0,84,0.00,,,0.00,WUHU216HW,2013-02-04 11:55:00,
2013-02-04 06:05:00,11.2,7.2,29.93,North,0,0.0,0.0,84,0.00,,,0.00,WUHU216HW,2013-02-04 12:05:00,
2013-02-04 06:15:00,11.2,7.2,29.93,North,0,0.0,0.0,84,0.00,,,0.00,WUHU216HW,2013-02-04 12:15:00,
2013-02-04 06:25:00,11.2,7.2,29.94,North,0,0.0,0.0,84,0.00,,,0.00,WUHU216HW,2013-02-04 12:25:00,
2013-02-04 06:35:00,11.2,7.2,29.94,North,0,0.0,0.0,84,0.00,,,0.00,WUHU216HW,2013-02-04 12:35:00,
2013-02-04 06:45:00,11.2,7.2,29.94,North,0,0.0,0.0,84,0.00,,,0.00,WUHU216HW,2013-02-04 12:45:00,
2013-02-04 06:55:00,11.2,7.2,29.94,North,0,0.0,0.0,84,0.00,,,0.00,WUHU216HW,2013-02-04 12:55:00,
2013-02-04 07:05:00,11.2,7.5,29.94,North,0,0.0,0.0,85,0.00,,,0.00,WUHU216HW,2013-02-04 13:05:00,
2013-02-04 07:15:00,11.2,7.2,29.93,North,0,0.0,0.0,84,0.00,,,0.00,WUHU216HW,2013-02-04 13:15:00,
2013-02-04 07:26:00,11.3,7.4,29.93,North,0,0.0,0.0,84,0.00,,,0.00,WUHU216HW,2013-02-04 13:26:00,
2013-02-04 07:36:00,11.3,7.4,29.93,North,0,0.0,0.0,84,0.00,,,0.00,WUHU216HW,2013-02-04 13:36:00,
2013-02-04 07:46:00,11.5,7.3,29.93,North,0,0.0,0.0,83,0.00,,,0.00,WUHU216HW,2013-02-04 13:46:00,
2013-02-04 07:56:00,11.5,7.3,29.93,North,0,0.0,0.0,83,0.00,,,0.00,WUHU216HW,2013-02-04 13:56:00,
2013-02-04 08:06:00,11.7,7.5,29.93,North,0,0.0,0.0,83,0.00,,,0.00,WUHU216HW,2013-02-04 14:06:00,
2013-02-04 08:16:00,11.9,7.7,29.93,North,0,0.0,0.0,83,0.00,,,0.00,WUHU216HW,2013-02-04 14:16:00,
2013-02-04 08:26:00,12.1,7.6,29.93,North,0,0.0,0.0,82,0.00,,,0.00,WUHU216HW,2013-02-04 14:26:00,
2013-02-04 08:36:00,12.1,7.6,29.93,North,0,0.0,0.0,82,0.00,,,0.00,WUHU216HW,2013-02-04 14:36:00,
2013-02-04 08:46:00,12.4,7.9,29.93,North,0,0.0,0.0,82,0.00,,,0.00,WUHU216HW,2013-02-04 14:46:00,
2013-02-04 08:56:00,12.6,7.8,29.93,North,0,0.0,0.0,81,0.00,,,0.00,WUHU216HW,2013-02-04 14:56:00,
2013-02-04 09:06:00,12.8,8.0,29.93,North,0,0.0,0.0,81,0.00,,,0.00,WUHU216HW,2013-02-04 15:06:00,
2013-02-04 09:16:00,13.0,8.5,29.93,North,0,0.0,0.0,82,0.00,,,0.00,WUHU216HW,2013-02-04 15:16:00,
2013-02-04 09:26:00,13.0,8.2,29.93,North,0,0.0,0.0,81,0.00,,,0.00,WUHU216HW,2013-02-04 15:26:00,
2013-02-04 09:37:00,13.0,7.9,29.93,North,0,0.0,0.0,80,0.00,,,0.00,WUHU216HW,2013-02-04 15:37:00,
2013-02-04 09:47:00,13.5,8.2,29.93,North,0,0.0,0.0,79,0.00,,,0.00,WUHU216HW,2013-02-04 15:47:00,
2013-02-04 09:57:00,14.0,8.5,29.93,North,0,0.0,0.0,78,0.00,,,0.00,WUHU216HW,2013-02-04 15:57:00,
2013-02-04 10:07:00,14.0,8.1,29.93,North,0,0.0,0.0,77,0.00,,,0.00,WUHU216HW,2013-02-04 16:07:00,
2013-02-04 10:17:00,14.0,7.8,29.94,North,0,0.0,0.0,76,0.00,,,0.00,WUHU216HW,2013-02-04 16:17:00,
2013-02-04 10:27:00,14.8,8.6,29.94,North,0,0.0,0.0,76,0.00,,,0.00,WUHU216HW,2013-02-04 16:27:00,
2013-02-04 10:37:00,14.6,8.1,29.94,North,0,0.0,0.0,75,0.00,,,0.00,WUHU216HW,2013-02-04 16:37:00,
2013-02-04 10:47:00,14.6,8.1,29.94,North,0,0.0,0.0,75,0.00,,,0.00,WUHU216HW,2013-02-04 16:47:00,
2013-02-04 10:57:00,15.1,8.3,29.94,North,0,0.0,0.0,74,0.00,,,0.00,WUHU216HW,2013-02-04 16:57:00,
2013-02-04 11:08:00,14.4,7.0,29.94,North,0,0.0,0.0,72,0.00,,,0.00,WUHU216HW,2013-02-04 17:08:00,
2013-02-04 11:18:00,14.8,7.9,29.94,North,0,0.0,0.0,74,0.00,,,0.00,WUHU216HW,2013-02-04 17:18:00,
2013-02-04 11:28:00,15.5,8.3,29.94,North,0,0.0,0.0,73,0.00,,,0.00,WUHU216HW,2013-02-04 17:28:00,
2013-02-04 11:38:00,14.8,7.4,29.94,North,0,0.0,0.0,72,0.00,,,0.00,WUHU216HW,2013-02-04 17:38:00,
2013-02-04 11:48:00,14.8,7.4,29.94,North,0,0.0,0.0,72,0.00,,,0.00,WUHU216HW,2013-02-04 17:48:00,
2013-02-04 11:58:00,14.6,7.5,29.94,North,0,0.0,0.0,73,0.00,,,0.00,WUHU216HW,2013-02-04 17:58:00,
2013-02-04 12:08:00,14.4,7.0,29.93,North,0,0.0,0.0,72,0.00,,,0.00,WUHU216HW,2013-02-04 18:08:00,
2013-02-04 12:19:00,14.4,6.8,29.93,North,0,0.0,0.0,71,0.00,,,0.00,WUHU216HW,2013-02-04 18:19:00,
2013-02-04 12:29:00,14.9,7.6,29.94,North,0,0.0,0.0,72,0.00,,,0.00,WUHU216HW,2013-02-04 18:29:00,
2013-02-04 12:40:00,14.9,6.9,29.93,North,0,0.0,0.0,70,0.00,,,0.00,WUHU216HW,2013-02-04 18:40:00,
2013-02-04 12:50:00,15.3,7.3,29.93,North,0,0.0,0.0,70,0.00,,,0.00,WUHU216HW,2013-02-04 18:50:00,
2013-02-04 13:02:00,15.3,6.9,29.93,North,0,0.0,0.0,69,0.00,,,0.00,WUHU216HW,2013-02-04 19:02:00,
2013-02-04 13:12:00,15.5,7.8,29.93,North,0,0.0,0.0,71,0.00,,,0.00,WUHU216HW,2013-02-04 19:12:00,
2013-02-04 13:23:00,15.8,7.7,29.93,North,0,0.0,0.0,70,0.00,,,0.00,WUHU216HW,2013-02-04 19:23:00,
2013-02-04 13:33:00,15.7,6.9,29.94,North,0,0.0,0.0,68,0.00,,,0.00,WUHU216HW,2013-02-04 19:33:00,
2013-02-04 13:44:00,15.5,6.8,29.94,North,0,0.0,0.0,68,0.00,,,0.00,WUHU216HW,2013-02-04 19:44:00,
2013-02-04 13:54:00,15.1,6.0,29.94,North,0,0.0,0.0,67,0.00,,,0.00,WUHU216HW,2013-02-04 19:54:00,
2013-02-04 14:05:00,14.8,5.4,29.93,North,0,0.0,0.0,66,0.00,,,0.00,WUHU216HW,2013-02-04 20:05:00,
2013-02-04 14:16:00,14.6,4.6,29.92,North,0,0.0,0.0,64,0.00,,,0.00,WUHU216HW,2013-02-04 20:16:00,
2013-02-04 14:26:00,14.2,3.9,29.91,North,0,0.0,0.0,63,0.00,,,0.00,WUHU216HW,2013-02-04 20:26:00,
2013-02-04 14:37:00,13.9,3.9,29.91,North,0,0.0,0.0,64,0.00,,,0.00,WUHU216HW,2013-02-04 20:37:00,
2013-02-04 14:47:00,13.7,3.7,29.92,North,0,0.0,0.0,64,0.00,,,0.00,WUHU216HW,2013-02-04 20:47:00,
2013-02-04 14:58:00,13.7,3.7,29.91,North,0,0.0,0.0,64,0.00,,,0.00,WUHU216HW,2013-02-04 20:58:00,
2013-02-04 15:09:00,13.7,3.3,29.91,North,0,0.0,0.0,63,0.00,,,0.00,WUHU216HW,2013-02-04 21:09:00,
2013-02-04 15:19:00,13.5,3.5,29.91,North,0,0.0,0.0,64,0.00,,,0.00,WUHU216HW,2013-02-04 21:19:00,
2013-02-04 15:30:00,13.5,3.9,29.92,North,0,0.0,0.0,65,0.00,,,0.00,WUHU216HW,2013-02-04 21:30:00,
2013-02-04 15:40:00,13.3,3.0,29.91,North,0,0.0,0.0,63,0.00,,,0.00,WUHU216HW,2013-02-04 21:40:00,
2013-02-04 15:51:00,13.5,3.2,29.92,North,0,0.0,0.0,63,0.00,,,0.00,WUHU216HW,2013-02-04 21:51:00,
2013-02-04 16:02:00,13.1,2.5,29.92,North,0,0.0,0.0,62,0.00,,,0.00,WUHU216HW,2013-02-04 22:02:00,
2013-02-04 16:13:00,12.4,2.4,29.92,North,0,0.0,0.0,64,0.00,,,0.00,WUHU216HW,2013-02-04 22:13:00,
2013-02-04 16:23:00,11.9,1.9,29.92,North,0,0.0,0.0,64,0.00,,,0.00,WUHU216HW,2013-02-04 22:23:00,
2013-02-04 16:34:00,11.5,1.9,29.93,North,0,0.0,0.0,65,0.00,,,0.00,WUHU216HW,2013-02-04 22:34:00,
2013-02-04 16:44:00,10.8,1.5,29.93,North,0,0.0,0.0,66,0.00,,,0.00,WUHU216HW,2013-02-04 22:44:00,
2013-02-04 16:55:00,10.3,1.4,29.93,North,0,0.0,0.0,67,0.00,,,0.00,WUHU216HW,2013-02-04 22:55:00,
2013-02-04 17:06:00,9.7,1.2,29.93,North,0,0.0,0.0,68,0.00,,,0.00,WUHU216HW,2013-02-04 23:06:00,
2013-02-04 17:16:00,9.2,0.7,29.93,North,0,0.0,0.0,68,0.00,,,0.00,WUHU216HW,2013-02-04 23:16:00,
2013-02-04 17:27:00,8.6,0.2,29.92,North,0,0.0,0.0,68,0.00,,,0.00,WUHU216HW,2013-02-04 23:27:00,
2013-02-04 17:38:00,7.2,-1.2,29.92,North,0,0.0,0.0,68,0.00,,,0.00,WUHU216HW,2013-02-04 23:38:00,
2013-02-04 17:48:00,6.8,-0.9,29.93,North,0,0.0,0.0,70,0.00,,,0.00,WUHU216HW,2013-02-04 23:48:00,
2013-02-04 17:59:00,5.9,-1.8,29.93,North,0,0.0,0.0,70,0.00,,,0.00,WUHU216HW,2013-02-04 23:59:00,
2013-02-04 18:09:00,5.4,-2.1,29.94,North,0,0.0,0.0,71,0.00,,,0.00,WUHU216HW,2013-02-05 00:09:00,
2013-02-04 18:25:00,5.8,-1.1,29.94,North,0,0.0,0.0,73,0.00,,,0.00,WUHU216HW,2013-02-05 00:25:00,
2013-02-04 18:35:00,5.0,-1.8,29.93,North,0,0.0,0.0,73,0.00,,,0.00,WUHU216HW,2013-02-05 00:35:00,
2013-02-04 18:45:00,4.7,-2.1,29.93,North,0,0.0,0.0,73,0.00,,,0.00,WUHU216HW,2013-02-05 00:45:00,
2013-02-04 18:55:00,4.1,-2.7,29.93,North,0,0.0,0.0,73,0.00,,,0.00,WUHU216HW,2013-02-05 00:55:00,
2013-02-04 19:05:00,4.5,-1.2,29.94,North,0,0.0,0.0,77,0.00,,,0.00,WUHU216HW,2013-02-05 01:05:00,
2013-02-04 19:15:00,4.1,-1.8,29.94,North,0,0.0,0.0,76,0.00,,,0.00,WUHU216HW,2013-02-05 01:15:00,
2013-02-04 19:26:00,4.7,-1.0,29.94,North,0,0.0,0.0,77,0.00,,,0.00,WUHU216HW,2013-02-05 01:26:00,
2013-02-04 19:36:00,5.4,-0.6,29.95,North,0,0.0,0.0,76,0.00,,,0.00,WUHU216HW,2013-02-05 01:36:00,
2013-02-04 19:46:00,5.8,-0.3,29.95,North,0,0.0,0.0,76,0.00,,,0.00,WUHU216HW,2013-02-05 01:46:00,
2013-02-04 19:56:00,5.8,-0.3,29.96,North,0,0.0,0.0,76,0.00,,,0.00,WUHU216HW,2013-02-05 01:56:00,
2013-02-04 20:06:00,5.9,-0.1,29.96,North,0,0.0,0.0,76,0.00,,,0.00,WUHU216HW,2013-02-05 02:06:00,
2013-02-04 20:19:00,5.8,-0.5,29.95,North,0,0.0,0.0,75,0.00,,,0.00,WUHU216HW,2013-02-05 02:19:00,
2013-02-04 20:29:00,6.1,-0.2,29.95,North,0,0.0,0.0,75,0.00,,,0.00,WUHU216HW,2013-02-05 02:29:00,
2013-02-04 20:39:00,6.1,-0.2,29.95,North,0,0.0,0.0,75,0.00,,,0.00,WUHU216HW,2013-02-05 02:39:00,
2013-02-04 20:49:00,6.3,0.0,29.95,North,0,0.0,0.0,75,0.00,,,0.00,WUHU216HW,2013-02-05 02:49:00,
2013-02-04 20:59:00,6.3,0.0,29.94,North,0,0.0,0.0,75,0.00,,,0.00,WUHU216HW,2013-02-05 02:59:00,
2013-02-04 21:09:00,6.1,-0.2,29.94,North,0,0.0,0.0,75,0.00,,,0.00,WUHU216HW,2013-02-05 03:09:00,
2013-02-04 21:19:00,5.6,-0.7,29.94,North,0,0.0,0.0,75,0.00,,,0.00,WUHU216HW,2013-02-05 03:19:00,
2013-02-04 21:29:00,5.2,-0.8,29.93,North,0,0.0,0.0,76,0.00,,,0.00,WUHU216HW,2013-02-05 03:29:00,
2013-02-04 21:39:00,4.9,-1.2,29.93,North,0,0.0,0.0,76,0.00,,,0.00,WUHU216HW,2013-02-05 03:39:00,
2013-02-04 21:49:00,4.7,-1.3,29.93,North,0,0.0,0.0,76,0.00,,,0.00,WUHU216HW,2013-02-05 03:49:00,
2013-02-04 21:59:00,4.7,-1.0,29.93,North,0,0.0,0.0,77,0.00,,,0.00,WUHU216HW,2013-02-05 03:59:00,
2013-02-04 22:09:00,4.7,-1.0,29.93,North,0,0.0,0.0,77,0.00,,,0.00,WUHU216HW,2013-02-05 04:09:00,
2013-02-04 22:20:00,4.7,-1.0,29.93,North,0,0.0,0.0,77,0.00,,,0.00,WUHU216HW,2013-02-05 04:20:00,
2013-02-04 22:30:00,4.7,-1.0,29.93,North,0,0.0,0.0,77,0.00,,,0.00,WUHU216HW,2013-02-05 04:30:00,
2013-02-04 22:40:00,4.3,-1.1,29.93,North,0,0.0,0.0,78,0.00,,,0.00,WUHU216HW,2013-02-05 04:40:00,
2013-02-04 22:50:00,4.0,-1.4,29.92,North,0,0.0,0.0,78,0.00,,,0.00,WUHU216HW,2013-02-05 04:50:00,
2013-02-04 23:00:00,3.8,-1.6,29.92,North,0,0.0,0.0,78,0.00,,,0.00,WUHU216HW,2013-02-05 05:00:00,
2013-02-04 23:10:00,3.8,-1.6,29.92,North,0,0.0,0.0,78,0.00,,,0.00,WUHU216HW,2013-02-05 05:10:00,
2013-02-04 23:20:00,3.8,-1.6,29.92,North,0,0.0,0.0,78,0.00,,,0.00,WUHU216HW,2013-02-05 05:20:00,
2013-02-04 23:30:00,3.6,-1.8,29.92,North,0,0.0,0.0,78,0.00,,,0.00,WUHU216HW,2013-02-05 05:30:00,
2013-02-04 23:41:00,3.6,-1.8,29.92,North,0,0.0,0.0,78,0.00,,,0.00,WUHU216HW,2013-02-05 05:41:00,
2013-02-04 23:51:00,3.4,-1.7,29.92,North,0,0.0,0.0,79,0.00,,,0.00,WUHU216HW,2013-02-05 05:51:00,